Bookmark and Share
Track history (hours):
 

Drifting buoy 56916

Last reported at 2013-Jun-19 10:30 UTC. Time now 2014-Apr-20 13:34 UTC.
Position S 32°11' E 082°11'.
Warning: this ship's position is months out of date.

Barometer 1023.9 mb
Water temperature 19.8 ° C

NotesDate/timePositionNaut miles runAvg speedWind from/ knotsBaromVisibWave heightAir tempDewpointWater temp
2013-Jun-19 10:30S 32°11' E 082°11'0 0.0 1023.9 19.8
2013-Jun-19 07:30S 32°11' E 082°11'2 0.5 1023.9 19.7
2013-Jun-19 02:30S 32°10' E 082°09'1 0.6 1004.1 19.8
2013-Jun-19 01:30S 32°10' E 082°08'2 1.9 1003.9 19.8
2013-Jun-19 00:30S 32°08' E 082°08'1 0.7 1004.5 19.8
2013-Jun-18 22:30S 32°07' E 082°07'2 1.5 1005.3 19.9
2013-Jun-18 21:30S 32°06' E 082°06'0 0.0 1006.2 19.9
2013-Jun-18 20:30S 32°06' E 082°06'   1006.8 19.9
2013-Jun-16 01:30S 31°29' E 082°05'3 0.8 1025.7 19.6
2013-Jun-15 21:30S 31°28' E 082°09'0 0.0 1025.8 19.7
2013-Jun-15 19:30S 31°28' E 082°09'0 0.5 1025.7 19.7
2013-Jun-15 18:30S 31°28' E 082°09'1 0.8 1026.0 19.7
2013-Jun-15 17:30S 31°28' E 082°10'1 1.1 1026.1 19.7
2013-Jun-15 16:30S 31°27' E 082°11'0 0.4 1025.8 19.7
2013-Jun-15 15:30S 31°27' E 082°12'3 0.7 1026.1 19.7
2013-Jun-15 11:30S 31°26' E 082°15'1 1.1 1024.6 19.9
2013-Jun-15 10:30S 31°26' E 082°16'0 0.0 1024.6 19.9
2013-Jun-15 09:30S 31°26' E 082°16'0 0.3 1024.4 19.9
2013-Jun-15 08:30S 31°26' E 082°16'3 0.8 1024.1 19.9
2013-Jun-15 04:30S 31°25' E 082°20'5 0.7 1026.0 19.7
2013-Jun-14 21:30S 31°26' E 082°26'1 0.5 1024.0 19.7
2013-Jun-14 19:30S 31°26' E 082°27'1 0.6 1024.3 19.8
2013-Jun-14 18:30S 31°26' E 082°28'2 1.1 1024.5 19.8
2013-Jun-14 16:30S 31°27' E 082°30'0 0.4 1024.4 19.8
2013-Jun-14 15:30S 31°27' E 082°30'1 0.9 1024.5 19.9
2013-Jun-14 14:30S 31°28' E 082°31'1 0.3 1024.5 19.9
2013-Jun-14 10:30S 31°28' E 082°32'1 1.0 1023.0 20.0
2013-Jun-14 09:30S 31°28' E 082°34'0 0.2 1022.8 20.1
2013-Jun-14 08:30S 31°28' E 082°34'1 0.9 1022.9 20.1
2013-Jun-14 07:30S 31°28' E 082°35'2 2.2 1023.6 20.1
2013-Jun-14 06:30S 31°29' E 082°37'1 0.3 1023.9 20.0
2013-Jun-14 02:30S 31°29' E 082°38'1 1.2 1024.4 19.7
2013-Jun-14 01:30S 31°30' E 082°40'4 0.7 1023.9 19.8
2013-Jun-13 20:30S 31°33' E 082°42'1 0.5 1024.1 19.8
2013-Jun-13 18:30S 31°34' E 082°43'2 1.0 1024.5 19.8
2013-Jun-13 16:30S 31°35' E 082°44'3 0.5 1025.1 19.8
2013-Jun-13 10:30S 31°37' E 082°47'1 0.6 1023.9 19.9
2013-Jun-13 09:30S 31°37' E 082°48'2 1.1 1023.8 19.9
2013-Jun-13 07:30S 31°38' E 082°50'1 1.3 1024.4 19.9
2013-Jun-13 06:30S 31°37' E 082°49'2 0.8 1025.0 19.9
2013-Jun-13 04:30S 31°38' E 082°51'0 0.0 1026.0 19.9
2013-Jun-13 03:30S 31°38' E 082°51'0 0.5 1025.9 19.9
2013-Jun-13 02:30S 31°38' E 082°51'2 0.5 1025.6 19.9
2013-Jun-12 21:30S 31°40' E 082°52'0 0.2 1024.0 19.9
2013-Jun-12 20:30S 31°41' E 082°52'1 0.6 1024.3 19.9
2013-Jun-12 19:30S 31°41' E 082°51'2 0.5 1024.2 19.9
2013-Jun-12 16:30S 31°43' E 082°52'1 0.6 1024.5 19.9
2013-Jun-12 15:30S 31°43' E 082°51'2 1.0 1024.4 19.9
2013-Jun-12 13:30S 31°45' E 082°52'1 0.3 1023.3 19.9
2013-Jun-12 10:30S 31°46' E 082°53'0 0.0 1021.9 19.9
2013-Jun-12 09:30S 31°46' E 082°53'0 0.3 1021.7 20.0
2013-Jun-12 08:30S 31°46' E 082°53'1 0.8 1021.3 20.0
2013-Jun-12 07:30S 31°46' E 082°54'4 1.0 1021.7 20.0
2013-Jun-12 03:30S 31°49' E 082°57'3 0.7 1021.7 20.0
2013-Jun-11 23:30S 31°52' E 082°59'2 0.8 1019.0 20.0
2013-Jun-11 20:30S 31°54' E 082°60'1 0.8 1018.3 20.0
2013-Jun-11 19:30S 31°54' E 082°60'1 0.3 1018.1 20.0
2013-Jun-11 17:30S 31°55' E 083°00'2 1.6 1018.4 20.0
2013-Jun-11 16:30S 31°56' E 083°00'0 0.3 1018.3 19.9
2013-Jun-11 15:30S 31°56' E 082°60'2 1.7 1018.2 19.9
2013-Jun-11 14:30S 31°58' E 082°59'0 0.0 1018.5 19.9
2013-Jun-11 13:30S 31°58' E 082°59'2 0.6 1018.3 19.9
2013-Jun-11 10:30S 31°60' E 083°00'0 0.2 1017.6 19.9
2013-Jun-11 09:30S 32°00' E 082°60'1 0.5 1017.4 20.0
2013-Jun-11 07:30S 32°01' E 083°00'3 1.1 1017.7 20.0
2013-Jun-11 04:30S 32°04' E 083°01'3 0.8 1019.6 20.0
2013-Jun-11 01:30S 32°07' E 083°01'2 1.7 1019.3 20.0
2013-Jun-11 00:30S 32°08' E 082°60'1 0.5 1019.0 20.0
2013-Jun-10 22:30S 32°09' E 082°60'2 1.6 1019.1 20.0
2013-Jun-10 21:30S 32°11' E 082°60'0 0.1 1019.5 20.0
2013-Jun-10 20:30S 32°11' E 082°59'1 1.0 1020.0 20.0
2013-Jun-10 19:30S 32°12' E 082°59'3 0.8 1020.3 20.1
2013-Jun-10 15:30S 32°15' E 082°58'4 0.8 1021.4 20.1
2013-Jun-10 10:30S 32°18' E 082°58'1 0.6 1020.6 20.2
2013-Jun-10 09:30S 32°19' E 082°58'4 2.0 1020.5 20.2
2013-Jun-10 07:30S 32°23' E 082°56'0 0.0 1021.2 20.2
2013-Jun-10 06:30S 32°23' E 082°56'0 0.0 1021.8 20.2
2013-Jun-10 04:30S 32°23' E 082°56'1 0.7 1023.0 20.2
2013-Jun-10 02:30S 32°24' E 082°56'1 1.1 1022.0 20.2
2013-Jun-10 01:30S 32°25' E 082°55'1 0.2 1022.0 20.2
2013-Jun-09 22:30S 32°25' E 082°54'1 1.1 1021.1 20.2
2013-Jun-09 21:30S 32°26' E 082°53'0 0.1 1021.4 20.2
2013-Jun-09 20:30S 32°26' E 082°53'2 0.7 1021.5 20.2
2013-Jun-09 17:30S 32°27' E 082°51'2 0.4 1022.2 20.2
2013-Jun-09 10:30S 32°28' E 082°48'   1021.5 20.2

Dump ship's entire track history

sailing weather and tide predictions

Buoy 56916